»·PEaware :: N5002T KSNA-KSBA

N5002T :: KSNA-KSBA

FLIGHT INFORMATION

Flight Status: Arrived
Operator: Privately registered:
United States
More flights under this callsign
Pilot: Hunter M. (19355)
Aircraft: CESSNA 172 SKYHAWK
(C172)
More flights by this aircraft type
Origin: KSNA John Wayne-Orange Co
United States
Destination: KSBA Santa Barbara Mun
United States
More flights between these airports :: More routes between these airports
Route: SLI V23 LAX V299 VTU VTU282 KWANG
File this flight plan on PilotEdge
Remarks: +CW / TEC Route
Altitude:
(Current/Filed)
6,000ft
Speed:
(Current/Filed)
118kts
Departed: 04-May-19 09:53 AM
Arrived: 04-May-19 11:19 AM
Distance/Time
Traveled:
108nm/1:26
Distance/Time
To Go:
Arrived

Flight Plot

Page will automatically refresh every two minutes.


Map Options




Map Legend


Flown Route
Filed Route
Departure Airport
Arrival Airport
Navaid (VOR, NDB)
Fix

Horizontal Profiles

Position Reports

Time Latitude Longitude Heading Altitude Ground
Speed
04-May-19 09:12 33.667443 -117.870774 37 59ft 0kts
04-May-19 09:13 33.667443 -117.870774 37 59ft 0kts
04-May-19 09:14 33.667443 -117.870774 37 59ft 0kts
04-May-19 09:15 33.667443 -117.870774 37 59ft 0kts
04-May-19 09:16 33.667443 -117.870774 37 59ft 0kts
04-May-19 09:17 33.667443 -117.870774 37 59ft 0kts
04-May-19 09:18 33.667443 -117.870774 37 59ft 0kts
04-May-19 09:19 33.667443 -117.870774 37 59ft 0kts
04-May-19 09:20 33.667443 -117.870774 37 59ft 0kts
04-May-19 09:21 33.667443 -117.870774 37 59ft 0kts
04-May-19 09:22 33.667443 -117.870774 37 59ft 0kts
04-May-19 09:23 33.667443 -117.870774 37 59ft 0kts
04-May-19 09:24 33.667443 -117.870774 37 59ft 0kts
04-May-19 09:25 33.667443 -117.870774 37 59ft 0kts
04-May-19 09:26 33.667443 -117.870774 37 59ft 0kts
04-May-19 09:27 33.667443 -117.870774 37 59ft 0kts
04-May-19 09:28 33.667443 -117.870774 37 59ft 0kts
04-May-19 09:29 33.667443 -117.870774 37 59ft 0kts
04-May-19 09:30 33.667443 -117.870774 37 59ft 0kts
04-May-19 09:31 33.667443 -117.870774 37 59ft 0kts
04-May-19 09:32 33.667443 -117.870774 37 59ft 0kts
04-May-19 09:33 33.667443 -117.870774 37 59ft 0kts
04-May-19 09:34 33.667443 -117.870774 37 59ft 0kts
04-May-19 09:35 33.667443 -117.870774 37 59ft 0kts
04-May-19 09:36 33.667443 -117.870774 37 59ft 0kts
04-May-19 09:37 33.667443 -117.870774 37 59ft 0kts
04-May-19 09:38 33.667443 -117.870774 37 59ft 0kts
04-May-19 09:39 33.667443 -117.870774 37 59ft 0kts
04-May-19 09:40 33.667443 -117.870774 37 59ft 0kts
04-May-19 09:41 33.667443 -117.870774 37 59ft 0kts
04-May-19 09:42 33.667443 -117.870774 37 59ft 0kts
04-May-19 09:43 33.667443 -117.870774 37 59ft 0kts
04-May-19 09:44 33.667635 -117.870962 306 59ft 11kts
04-May-19 09:45 33.671386 -117.868599 30 59ft 16kts
04-May-19 09:46 33.673539 -117.866660 312 59ft 6kts
04-May-19 09:47 33.674794 -117.866604 26 59ft 13kts
04-May-19 09:48 33.679290 -117.863928 30 59ft 11kts
04-May-19 09:49 33.679678 -117.863809 321 59ft 0kts
04-May-19 09:50 33.679678 -117.863809 322 59ft 0kts
04-May-19 09:51 33.679793 -117.863959 301 59ft 8kts
04-May-19 09:52 33.674297 -117.867662 205 128ft 74kts
04-May-19 09:53 33.655378 -117.881515 231 886ft 85kts
04-May-19 09:54 33.639949 -117.904204 231 1603ft 89kts
04-May-19 09:55 33.627207 -117.928163 296 2284ft 86kts
04-May-19 09:56 33.641269 -117.950515 305 3017ft 83kts
04-May-19 09:57 33.654840 -117.972629 305 3705ft 81kts
04-May-19 09:58 33.668159 -117.994560 305 4398ft 80kts
04-May-19 09:59 33.681015 -118.015965 304 5075ft 77kts
04-May-19 10:00 33.693105 -118.036274 304 5735ft 71kts
04-May-19 10:01 33.705727 -118.057784 304 6038ft 94kts
04-May-19 10:02 33.721323 -118.084770 304 5995ft 97kts
04-May-19 10:03 33.736547 -118.111275 304 5996ft 96kts
04-May-19 10:04 33.751655 -118.137690 304 6000ft 96kts
04-May-19 10:05 33.767318 -118.164095 306 6001ft 97kts
04-May-19 10:06 33.783360 -118.190161 306 6000ft 97kts
04-May-19 10:07 33.799393 -118.216336 306 6001ft 97kts
04-May-19 10:08 33.815371 -118.242537 306 6000ft 97kts
04-May-19 10:09 33.831318 -118.268807 306 6001ft 97kts
04-May-19 10:10 33.847220 -118.295121 305 6000ft 97kts
04-May-19 10:11 33.863080 -118.321485 305 6000ft 97kts
04-May-19 10:12 33.878886 -118.347879 305 6000ft 97kts
04-May-19 10:13 33.894631 -118.374330 305 6001ft 97kts
04-May-19 10:14 33.910362 -118.400939 305 6000ft 97kts
04-May-19 10:15 33.925970 -118.427480 305 6000ft 97kts
04-May-19 10:16 33.936344 -118.457395 292 6000ft 97kts
04-May-19 10:17 33.948762 -118.486392 299 6000ft 97kts
04-May-19 10:18 33.959104 -118.516496 292 6002ft 97kts
04-May-19 10:19 33.968597 -118.547177 291 6000ft 97kts
04-May-19 10:20 33.978047 -118.577954 291 6000ft 97kts
04-May-19 10:21 33.987410 -118.608715 291 5999ft 97kts
04-May-19 10:22 33.996703 -118.639526 291 6000ft 97kts
04-May-19 10:23 34.005944 -118.670368 291 6000ft 97kts
04-May-19 10:24 34.015133 -118.701250 291 6000ft 97kts
04-May-19 10:25 34.024294 -118.732251 291 6000ft 98kts
04-May-19 10:26 34.033379 -118.763199 291 6000ft 98kts
04-May-19 10:27 34.042416 -118.794189 291 6000ft 98kts
04-May-19 10:28 34.051393 -118.825181 290 6000ft 98kts
04-May-19 10:29 34.060278 -118.856213 290 5998ft 98kts
04-May-19 10:30 34.069105 -118.887325 290 5997ft 98kts
04-May-19 10:31 34.077888 -118.918522 290 5997ft 98kts
04-May-19 10:32 34.086598 -118.949693 290 5997ft 98kts
04-May-19 10:33 34.095270 -118.980858 290 5998ft 98kts
04-May-19 10:34 34.103886 -119.012079 290 5996ft 98kts
04-May-19 10:35 34.112722 -119.043354 292 5994ft 98kts
04-May-19 10:36 34.122048 -119.074206 291 5990ft 98kts
04-May-19 10:37 34.130906 -119.105477 290 5990ft 98kts
04-May-19 10:38 34.143382 -119.134480 302 5990ft 97kts
04-May-19 10:39 34.157685 -119.162336 302 5990ft 97kts
04-May-19 10:40 34.171988 -119.190330 302 5990ft 97kts
04-May-19 10:41 34.186198 -119.218278 302 5990ft 97kts
04-May-19 10:42 34.200362 -119.246273 302 5990ft 97kts
04-May-19 10:43 34.214618 -119.274198 304 5990ft 97kts
04-May-19 10:44 34.229553 -119.301582 304 5990ft 97kts
04-May-19 10:45 34.244448 -119.329026 304 5990ft 97kts
04-May-19 10:46 34.259301 -119.356524 303 5990ft 97kts
04-May-19 10:47 34.270953 -119.386227 291 5990ft 98kts
04-May-19 10:48 34.278576 -119.417858 277 5994ft 99kts
04-May-19 10:49 34.280145 -119.451304 276 5989ft 99kts
04-May-19 10:50 34.281619 -119.484757 276 5988ft 99kts
04-May-19 10:51 34.282987 -119.518198 276 5988ft 99kts
04-May-19 10:52 34.283972 -119.551719 276 5981ft 99kts
04-May-19 10:53 34.284639 -119.585292 276 5982ft 100kts
04-May-19 10:54 34.285283 -119.619081 276 5981ft 100kts
04-May-19 10:55 34.285876 -119.652912 275 5981ft 100kts
04-May-19 10:56 34.286451 -119.686706 275 5982ft 100kts
04-May-19 10:57 34.286927 -119.720495 275 5982ft 100kts
04-May-19 10:58 34.287265 -119.754369 275 5982ft 100kts
04-May-19 10:59 34.288193 -119.787398 275 5981ft 96kts
04-May-19 11:00 34.289439 -119.819509 275 5983ft 95kts
04-May-19 11:01 34.290451 -119.851552 275 5983ft 95kts
04-May-19 11:02 34.291403 -119.883602 276 5983ft 95kts
04-May-19 11:03 34.292316 -119.915873 275 5984ft 96kts
04-May-19 11:04 34.293909 -119.947709 274 5416ft 90kts
04-May-19 11:05 34.296957 -119.977557 274 4786ft 94kts
04-May-19 11:06 34.301380 -120.011929 275 4274ft 115kts
04-May-19 11:07 34.310061 -120.044306 348 3802ft 95kts
04-May-19 11:09 34.333711 -120.046523 353 2973ft 78kts
04-May-19 11:10 34.355560 -120.048405 349 2145ft 79kts
04-May-19 11:11 34.380533 -120.049941 354 2020ft 96kts
04-May-19 11:12 34.404891 -120.040912 43 2056ft 99kts
04-May-19 11:13 34.424113 -120.016194 70 2044ft 99kts
04-May-19 11:14 34.424996 -119.982699 80 1996ft 104kts
04-May-19 11:15 34.426722 -119.947399 92 1572ft 103kts
04-May-19 11:16 34.426634 -119.914022 98 1008ft 91kts
04-May-19 11:17 34.426912 -119.884565 90 569ft 85kts
04-May-19 11:18 34.427508 -119.856159 92 156ft 75kts
04-May-19 11:19 34.427704 -119.844168 96 13ft 17kts
04-May-19 11:20 34.427820 -119.838768 86 13ft 16kts
04-May-19 11:21 34.428571 -119.838169 339 13ft 0kts
04-May-19 11:22 34.430390 -119.838837 342 13ft 25kts

Navigation Log

Ident Type
Flight plan parsing failed, navigation log unavailable